createdAt,value
2018-01-14T00:02:02.232Z,37.82
2018-01-14T00:04:29.808Z,37.75
2018-01-14T00:06:57.353Z,37.72
2018-01-14T00:09:24.837Z,37.77
2018-01-14T00:11:52.317Z,37.76
2018-01-14T00:14:19.867Z,37.70
2018-01-14T00:16:47.420Z,37.72
2018-01-14T00:19:14.894Z,37.68
2018-01-14T00:21:42.380Z,37.65
2018-01-14T00:24:09.931Z,37.61
2018-01-14T00:26:37.498Z,37.55
2018-01-14T00:31:45.728Z,37.44
2018-01-14T00:34:13.319Z,37.39
2018-01-14T00:36:40.817Z,37.32
2018-01-14T00:39:08.351Z,37.21
2018-01-14T00:41:35.840Z,37.13
2018-01-14T00:44:03.387Z,37.21
2018-01-14T00:46:30.922Z,37.07
2018-01-14T00:48:58.503Z,37.11
2018-01-14T00:51:26.008Z,37.04
2018-01-14T00:53:53.550Z,37.11
2018-01-14T00:56:21.134Z,37.08
2018-01-14T00:58:48.697Z,37.00
2018-01-14T01:01:16.289Z,37.07
2018-01-14T01:03:43.872Z,37.02
2018-01-14T01:06:11.354Z,36.99
2018-01-14T01:08:38.897Z,36.97
2018-01-14T01:11:06.373Z,36.88
2018-01-14T01:13:33.857Z,36.83
2018-01-14T01:16:01.407Z,36.81
2018-01-14T01:18:28.991Z,36.74
2018-01-14T01:20:56.465Z,36.73
2018-01-14T01:23:24.027Z,36.71
2018-01-14T01:25:51.579Z,36.65
2018-01-14T01:28:19.061Z,36.58
2018-01-14T01:30:46.661Z,36.57
2018-01-14T01:33:14.137Z,36.47
2018-01-14T01:35:41.609Z,36.45
2018-01-14T01:38:09.123Z,36.35
2018-01-14T01:40:36.600Z,36.22
2018-01-14T01:43:04.171Z,36.33
2018-01-14T01:45:31.735Z,36.35
2018-01-14T01:47:59.278Z,36.36
2018-01-14T01:50:26.819Z,36.27
2018-01-14T01:52:54.419Z,36.24
2018-01-14T01:55:21.968Z,36.23
2018-01-14T01:57:49.536Z,36.25
2018-01-14T02:00:17.091Z,36.18
2018-01-14T02:02:44.639Z,36.15
2018-01-14T02:05:12.189Z,36.16
2018-01-14T02:07:39.872Z,36.14
2018-01-14T02:10:07.472Z,36.03
2018-01-14T02:12:35.040Z,36.02
2018-01-14T02:15:02.596Z,35.95
2018-01-14T02:17:30.156Z,35.90
2018-01-14T02:19:57.638Z,35.86
2018-01-14T02:22:25.232Z,35.77
2018-01-14T02:24:52.779Z,35.73
2018-01-14T02:27:20.331Z,35.68
2018-01-14T02:29:47.850Z,35.64
2018-01-14T02:32:15.332Z,35.60
2018-01-14T02:34:42.845Z,35.57
2018-01-14T02:37:10.386Z,35.55
2018-01-14T02:39:37.977Z,35.55
2018-01-14T02:42:05.546Z,35.61
2018-01-14T02:44:33.098Z,35.60
2018-01-14T02:47:00.586Z,35.53
2018-01-14T02:49:28.148Z,35.54
2018-01-14T02:51:55.663Z,35.48
2018-01-14T02:54:23.252Z,35.48
2018-01-14T02:56:50.816Z,35.46
2018-01-14T02:59:18.373Z,35.38
2018-01-14T03:01:45.924Z,35.40
2018-01-14T03:04:13.467Z,35.31
2018-01-14T03:06:41.025Z,35.26
2018-01-14T03:09:08.589Z,35.25
2018-01-14T03:11:36.070Z,35.24
2018-01-14T03:14:03.624Z,35.13
2018-01-14T03:16:31.102Z,35.17
2018-01-14T03:18:58.648Z,35.18
2018-01-14T03:21:26.201Z,35.58
2018-01-14T03:23:53.778Z,35.87
2018-01-14T03:26:21.343Z,36.44
2018-01-14T03:28:48.821Z,36.89
2018-01-14T03:31:16.372Z,37.16
2018-01-14T03:33:43.920Z,37.33
2018-01-14T03:36:11.508Z,37.61
2018-01-14T03:38:39.103Z,37.75
2018-01-14T03:41:06.656Z,37.81
2018-01-14T03:43:34.202Z,37.64
2018-01-14T03:46:01.767Z,37.70
2018-01-14T03:48:29.325Z,37.48
2018-01-14T03:50:56.894Z,37.35
2018-01-14T03:53:24.474Z,37.10
2018-01-14T03:55:52.016Z,37.02
2018-01-14T03:58:19.489Z,37.02
2018-01-14T04:00:47.040Z,36.85
2018-01-14T04:03:14.517Z,36.88
2018-01-14T04:05:42.080Z,36.89
2018-01-14T04:08:09.637Z,36.85
2018-01-14T04:10:37.145Z,36.82
2018-01-14T04:13:04.693Z,36.81
2018-01-14T04:15:32.246Z,36.71
2018-01-14T04:17:59.835Z,36.68
2018-01-14T04:20:27.411Z,36.60
2018-01-14T04:22:54.889Z,36.54
2018-01-14T04:25:22.459Z,36.47
2018-01-14T04:27:49.968Z,36.39
2018-01-14T04:30:17.442Z,36.38
2018-01-14T04:32:45.095Z,36.20
2018-01-14T04:35:12.572Z,36.01
2018-01-14T04:37:40.147Z,36.09
2018-01-14T04:40:07.650Z,35.94
2018-01-14T04:42:35.130Z,35.81
2018-01-14T04:45:02.618Z,35.74
2018-01-14T04:47:30.175Z,35.98
2018-01-14T04:49:57.737Z,36.13
2018-01-14T04:52:25.285Z,36.02
2018-01-14T04:54:52.801Z,35.94
2018-01-14T04:57:20.356Z,35.83
2018-01-14T04:59:47.894Z,35.80
2018-01-14T05:02:15.442Z,35.74
2018-01-14T05:04:43.012Z,35.66
2018-01-14T05:07:10.565Z,35.62
2018-01-14T05:09:38.145Z,35.59
2018-01-14T05:12:05.729Z,35.45
2018-01-14T05:14:33.282Z,35.37
2018-01-14T05:17:00.832Z,35.17
2018-01-14T05:19:28.389Z,35.15
2018-01-14T05:21:55.927Z,35.15
2018-01-14T05:24:23.486Z,35.21
2018-01-14T05:26:50.963Z,35.19
2018-01-14T05:29:18.543Z,35.19
2018-01-14T05:31:46.094Z,35.22
2018-01-14T05:34:13.651Z,35.17
2018-01-14T05:36:41.222Z,35.08
2018-01-14T05:39:08.807Z,35.09
2018-01-14T05:41:36.356Z,34.98
2018-01-14T05:44:03.916Z,34.95
2018-01-14T05:46:31.496Z,34.83
2018-01-14T05:48:58.977Z,34.76
2018-01-14T05:51:26.536Z,34.66
2018-01-14T05:53:54.074Z,34.63
2018-01-14T05:56:21.624Z,34.60
2018-01-14T05:58:49.194Z,34.65
2018-01-14T06:01:16.685Z,34.47
2018-01-14T06:03:44.166Z,34.51
2018-01-14T06:06:11.710Z,34.52
2018-01-14T06:08:39.221Z,34.39
2018-01-14T06:11:06.777Z,34.45
2018-01-14T06:13:34.347Z,34.28
2018-01-14T06:16:02.094Z,34.27
2018-01-14T06:18:29.642Z,34.14
2018-01-14T06:20:57.189Z,34.40
2018-01-14T06:23:24.755Z,34.58
2018-01-14T06:25:52.315Z,34.55
2018-01-14T06:28:19.888Z,35.02
2018-01-14T06:30:47.359Z,35.20
2018-01-14T06:33:14.952Z,35.21
2018-01-14T06:35:42.578Z,35.20
2018-01-14T06:38:10.057Z,35.19
2018-01-14T06:40:37.540Z,34.86
2018-01-14T06:43:05.027Z,35.18
2018-01-14T06:45:32.646Z,35.29
2018-01-14T06:48:00.220Z,36.05
2018-01-14T06:50:27.777Z,36.37
2018-01-14T06:52:55.332Z,36.58
2018-01-14T06:55:22.824Z,36.88
2018-01-14T06:57:50.375Z,36.77
2018-01-14T07:00:17.853Z,37.03
2018-01-14T07:02:45.349Z,37.13
2018-01-14T07:05:12.934Z,37.03
2018-01-14T07:07:40.491Z,37.56
2018-01-14T07:10:08.034Z,37.43
2018-01-14T07:12:35.582Z,37.72
2018-01-14T07:15:03.066Z,37.75
2018-01-14T07:17:30.592Z,37.57
2018-01-14T07:19:58.172Z,37.80
2018-01-14T07:22:25.742Z,38.03
2018-01-14T07:24:53.295Z,38.04
2018-01-14T07:27:20.897Z,37.93
2018-01-14T07:29:48.466Z,38.20
2018-01-14T07:32:16.023Z,38.17
2018-01-14T07:34:43.502Z,38.10
2018-01-14T07:37:11.076Z,38.17
2018-01-14T07:39:38.634Z,38.19
2018-01-14T07:42:06.450Z,38.26
2018-01-14T07:44:34.013Z,38.61
2018-01-14T07:47:01.558Z,38.78
2018-01-14T07:49:29.118Z,38.81
2018-01-14T07:51:56.723Z,38.95
2018-01-14T07:54:24.216Z,38.91
2018-01-14T07:56:51.762Z,38.92
2018-01-14T07:59:19.237Z,38.82
2018-01-14T08:01:46.807Z,39.31
2018-01-14T08:04:14.277Z,39.21
2018-01-14T08:06:41.823Z,38.93
2018-01-14T08:09:09.382Z,38.81
2018-01-14T08:11:36.944Z,38.71
2018-01-14T08:14:04.567Z,38.55
2018-01-14T08:16:32.119Z,38.44
2018-01-14T08:18:59.641Z,38.99
2018-01-14T08:21:27.189Z,38.87
2018-01-14T08:23:54.748Z,38.56
2018-01-14T08:26:22.225Z,38.54
2018-01-14T08:28:49.717Z,38.43
2018-01-14T08:31:17.198Z,38.44
2018-01-14T08:33:44.697Z,38.31
2018-01-14T08:36:12.929Z,38.50
2018-01-14T08:38:40.497Z,38.76
2018-01-14T08:41:08.079Z,38.63
2018-01-14T08:43:35.644Z,38.55
2018-01-14T08:46:03.208Z,38.45
2018-01-14T08:48:30.766Z,38.35
2018-01-14T08:50:58.315Z,38.03
2018-01-14T08:53:25.864Z,37.79
2018-01-14T08:55:53.402Z,38.52
2018-01-14T08:58:20.993Z,40.36
2018-01-14T09:00:48.478Z,40.35
2018-01-14T09:03:16.040Z,40.01
2018-01-14T09:05:43.601Z,40.02
2018-01-14T09:08:11.164Z,39.94
2018-01-14T09:10:38.726Z,39.85
2018-01-14T09:13:06.383Z,40.32
2018-01-14T09:15:33.865Z,41.03
2018-01-14T09:18:01.346Z,41.60
2018-01-14T09:20:28.869Z,41.39
2018-01-14T09:22:56.419Z,41.43
2018-01-14T09:25:23.970Z,41.17
2018-01-14T09:27:51.520Z,41.35
2018-01-14T09:30:30.889Z,42.47
2018-01-14T09:32:58.443Z,41.79
2018-01-14T09:35:25.995Z,41.50
2018-01-14T09:37:53.574Z,40.97
2018-01-14T09:40:21.117Z,40.62
2018-01-14T09:42:48.717Z,40.61
2018-01-14T09:45:16.267Z,40.63
2018-01-14T09:47:43.809Z,40.25
2018-01-14T09:50:11.294Z,39.94
2018-01-14T09:52:38.861Z,39.87
2018-01-14T09:55:06.456Z,39.85
2018-01-14T09:57:34.102Z,39.83
2018-01-14T10:00:01.675Z,39.41
2018-01-14T10:02:29.230Z,39.29
2018-01-14T10:04:56.717Z,39.41
2018-01-14T10:07:24.279Z,39.62
2018-01-14T10:09:51.767Z,39.14
2018-01-14T10:12:19.325Z,38.92
2018-01-14T10:14:46.916Z,39.02
2018-01-14T10:17:14.584Z,38.44
2018-01-14T10:19:42.159Z,38.13
2018-01-14T10:22:09.710Z,37.87
2018-01-14T10:24:37.185Z,37.71
2018-01-14T10:27:04.747Z,37.77
2018-01-14T10:29:32.270Z,37.73
2018-01-14T10:31:59.773Z,37.69
2018-01-14T10:34:27.318Z,37.18
2018-01-14T10:36:54.883Z,37.02
2018-01-14T10:39:22.430Z,37.00
2018-01-14T10:41:49.909Z,36.72
2018-01-14T10:44:17.422Z,36.50
2018-01-14T10:46:44.991Z,36.59
2018-01-14T10:49:12.477Z,36.83
2018-01-14T10:51:40.027Z,37.83
2018-01-14T10:54:07.574Z,37.37
2018-01-14T10:56:35.056Z,37.49
2018-01-14T10:59:02.616Z,37.75
2018-01-14T11:01:31.908Z,38.51
2018-01-14T11:03:59.459Z,39.65
2018-01-14T11:06:26.943Z,39.74
2018-01-14T11:08:54.508Z,38.80
2018-01-14T11:11:22.094Z,38.50
2018-01-14T11:13:49.645Z,38.38
2018-01-14T11:16:17.198Z,38.50
2018-01-14T11:18:44.769Z,38.73
2018-01-14T11:21:12.335Z,39.72
2018-01-14T11:23:39.895Z,39.34
2018-01-14T11:26:07.489Z,39.79
2018-01-14T11:28:37.743Z,40.11
2018-01-14T11:31:05.324Z,40.41
2018-01-14T11:33:32.882Z,42.71
2018-01-14T11:36:00.436Z,40.76
2018-01-14T11:38:28.001Z,40.20
2018-01-14T11:40:55.600Z,40.27
2018-01-14T11:43:23.173Z,40.18
2018-01-14T11:45:50.727Z,40.54
2018-01-14T11:48:18.289Z,40.43
2018-01-14T11:50:45.843Z,41.20
2018-01-14T11:53:13.394Z,42.40
2018-01-14T11:55:40.949Z,42.05
2018-01-14T11:58:08.469Z,41.55
2018-01-14T12:00:35.954Z,42.19
2018-01-14T12:03:03.503Z,43.52
2018-01-14T12:05:30.989Z,42.46
2018-01-14T12:07:58.729Z,42.29
2018-01-14T12:10:26.319Z,41.13
2018-01-14T12:12:53.927Z,41.46
2018-01-14T12:15:21.492Z,40.41
2018-01-14T12:17:49.087Z,40.16
2018-01-14T12:20:16.660Z,39.98
2018-01-14T12:22:44.158Z,39.76
2018-01-14T12:27:44.203Z,40.86
2018-01-14T12:30:11.712Z,40.72
2018-01-14T12:32:51.225Z,40.75
2018-01-14T12:35:18.804Z,40.81
2018-01-14T12:37:46.328Z,40.83
2018-01-14T12:40:13.896Z,40.93
2018-01-14T12:42:41.494Z,40.96
2018-01-14T12:45:09.056Z,40.75
2018-01-14T12:47:36.847Z,40.72
2018-01-14T12:50:04.448Z,40.67
2018-01-14T12:52:32.025Z,41.13
2018-01-14T12:54:59.656Z,40.98
2018-01-14T12:57:27.251Z,41.72
2018-01-14T12:59:54.836Z,40.92
2018-01-14T13:02:22.410Z,40.75
2018-01-14T13:04:49.915Z,40.65
2018-01-14T13:07:17.487Z,40.49
2018-01-14T13:09:45.059Z,40.38
2018-01-14T13:12:12.636Z,31.58
2018-01-14T13:14:40.135Z,30.97
2018-01-14T13:17:07.704Z,33.48
2018-01-14T13:19:35.268Z,37.34
2018-01-14T13:22:02.842Z,39.15
2018-01-14T13:24:30.438Z,40.12
2018-01-14T13:26:57.936Z,39.94
2018-01-14T13:29:25.490Z,39.73
2018-01-14T13:31:53.056Z,39.66
2018-01-14T13:34:20.628Z,39.57
2018-01-14T13:36:48.192Z,39.44
2018-01-14T13:39:15.793Z,39.31
2018-01-14T13:41:43.355Z,39.08
2018-01-14T13:44:10.912Z,39.11
2018-01-14T13:46:38.467Z,39.04
2018-01-14T13:49:05.962Z,38.99
2018-01-14T13:51:33.564Z,38.90
2018-01-14T13:54:01.123Z,38.87
2018-01-14T13:56:28.671Z,38.82
2018-01-14T13:58:56.227Z,38.88
2018-01-14T14:01:23.718Z,38.43
2018-01-14T14:03:51.213Z,38.44
2018-01-14T14:06:18.709Z,38.51
2018-01-14T14:08:46.300Z,38.42
2018-01-14T14:11:13.854Z,38.20
2018-01-14T14:13:41.349Z,38.33
2018-01-14T14:16:08.900Z,38.32
2018-01-14T14:18:36.466Z,38.21
2018-01-14T14:21:04.024Z,38.12
2018-01-14T14:23:31.583Z,38.08
2018-01-14T14:25:59.307Z,38.04
2018-01-14T14:28:26.894Z,38.02
2018-01-14T14:30:54.458Z,37.99
2018-01-14T14:33:22.024Z,37.93
2018-01-14T14:35:49.577Z,37.87
2018-01-14T14:38:17.078Z,37.85
2018-01-14T14:40:44.650Z,37.72
2018-01-14T14:43:12.154Z,37.64
2018-01-14T14:45:39.709Z,37.50
2018-01-14T14:48:07.294Z,37.69
2018-01-14T14:50:34.797Z,37.50
2018-01-14T14:53:02.297Z,37.36
2018-01-14T14:55:29.825Z,37.46
2018-01-14T14:57:57.371Z,37.44
2018-01-14T15:00:24.865Z,37.47
2018-01-14T15:02:52.449Z,37.52
2018-01-14T15:05:20.034Z,37.55
2018-01-14T15:07:47.660Z,37.56
2018-01-14T15:10:15.224Z,37.44
2018-01-14T15:12:42.788Z,37.29
2018-01-14T15:15:10.334Z,37.91
2018-01-14T15:17:37.809Z,37.77
2018-01-14T15:20:05.362Z,37.95
2018-01-14T15:22:32.977Z,38.37
2018-01-14T15:25:00.569Z,38.71
2018-01-14T15:27:28.128Z,39.25
2018-01-14T15:29:55.691Z,40.35
2018-01-14T15:32:23.248Z,40.46
2018-01-14T15:34:50.817Z,40.42
2018-01-14T15:37:18.297Z,41.03
2018-01-14T15:39:45.954Z,41.19
2018-01-14T15:42:13.499Z,41.25
2018-01-14T15:44:40.996Z,40.98
2018-01-14T15:47:08.571Z,41.37
2018-01-14T15:49:36.131Z,41.36
2018-01-14T15:52:03.628Z,40.67
2018-01-14T15:54:31.123Z,39.88
2018-01-14T15:56:58.673Z,39.23
2018-01-14T15:59:26.153Z,38.90
2018-01-14T16:01:53.710Z,39.24
2018-01-14T16:04:21.284Z,38.92
2018-01-14T16:06:48.852Z,38.57
2018-01-14T16:09:16.346Z,38.62
2018-01-14T16:11:43.915Z,38.49
2018-01-14T16:14:11.406Z,38.14
2018-01-14T16:16:38.972Z,37.82
2018-01-14T16:19:06.587Z,37.93
2018-01-14T16:21:34.144Z,37.98
2018-01-14T16:24:01.717Z,37.99
2018-01-14T16:26:29.218Z,37.68
2018-01-14T16:28:56.799Z,37.63
2018-01-14T16:31:24.392Z,37.44
2018-01-14T16:33:51.877Z,37.35
2018-01-14T16:36:19.365Z,37.04
2018-01-14T16:38:46.937Z,37.02
2018-01-14T16:41:14.540Z,37.07
2018-01-14T16:43:42.130Z,37.69
2018-01-14T16:46:09.649Z,37.90
2018-01-14T16:48:37.210Z,38.11
2018-01-14T16:51:04.788Z,38.15
2018-01-14T16:53:32.273Z,37.69
2018-01-14T16:55:59.841Z,37.73
2018-01-14T16:58:27.413Z,37.49
2018-01-14T17:00:54.970Z,37.15
2018-01-14T17:03:22.466Z,36.85
2018-01-14T17:05:50.049Z,36.80
2018-01-14T17:08:17.577Z,36.41
2018-01-14T17:10:45.147Z,36.47
2018-01-14T17:13:12.712Z,36.57
2018-01-14T17:15:40.276Z,36.65
2018-01-14T17:18:07.867Z,36.48
2018-01-14T17:20:35.439Z,36.53
2018-01-14T17:23:03.012Z,36.44
2018-01-14T17:25:30.559Z,36.19
2018-01-14T17:27:58.136Z,36.20
2018-01-14T17:30:25.720Z,36.16
2018-01-14T17:32:53.275Z,36.07
2018-01-14T17:35:20.847Z,36.11
2018-01-14T17:37:49.973Z,35.71
2018-01-14T17:40:17.530Z,35.93
2018-01-14T17:42:45.070Z,35.65
2018-01-14T17:45:12.565Z,35.45
2018-01-14T17:47:40.126Z,35.78
2018-01-14T17:50:07.695Z,36.41
2018-01-14T17:52:35.279Z,37.25
2018-01-14T17:55:02.836Z,37.20
2018-01-14T17:57:30.437Z,37.23
2018-01-14T17:59:58.028Z,37.48
2018-01-14T18:02:25.620Z,38.32
2018-01-14T18:04:53.174Z,39.50
2018-01-14T18:07:20.683Z,41.79
2018-01-14T18:09:48.236Z,42.23
2018-01-14T18:12:15.810Z,42.13
2018-01-14T18:14:43.322Z,42.58
2018-01-14T18:17:22.601Z,43.11
2018-01-14T18:19:50.172Z,41.23
2018-01-14T18:22:17.727Z,40.92
2018-01-14T18:24:45.231Z,41.13
2018-01-14T18:27:12.842Z,41.30
2018-01-14T18:29:40.426Z,41.50
2018-01-14T18:32:08.007Z,42.13
2018-01-14T18:34:35.604Z,42.27
2018-01-14T18:37:03.168Z,42.37
2018-01-14T18:39:30.740Z,41.60
2018-01-14T18:41:58.319Z,41.88
2018-01-14T18:44:25.881Z,41.87
2018-01-14T18:46:53.434Z,41.90
2018-01-14T18:49:20.993Z,42.83
2018-01-14T18:51:48.556Z,42.96
2018-01-14T18:54:16.049Z,42.88
2018-01-14T18:56:43.611Z,42.77
2018-01-14T18:59:11.192Z,42.90
2018-01-14T19:01:38.763Z,42.57
2018-01-14T19:04:06.318Z,42.25
2018-01-14T19:06:33.879Z,42.22
2018-01-14T19:09:01.449Z,42.18
2018-01-14T19:11:29.020Z,42.12
2018-01-14T19:13:56.575Z,41.60
2018-01-14T19:16:24.071Z,41.58
2018-01-14T19:18:51.638Z,42.01
2018-01-14T19:21:19.367Z,42.06
2018-01-14T19:23:46.830Z,42.15
2018-01-14T19:26:14.379Z,42.43
2018-01-14T19:28:41.890Z,42.05
2018-01-14T19:31:09.449Z,42.00
2018-01-14T19:33:37.114Z,41.55
2018-01-14T19:36:04.715Z,41.33
2018-01-14T19:38:32.266Z,41.27
2018-01-14T19:40:59.766Z,41.19
2018-01-14T19:43:27.277Z,41.10
2018-01-14T19:45:54.886Z,41.05
2018-01-14T19:48:22.468Z,40.76
2018-01-14T19:50:49.990Z,40.76
2018-01-14T19:53:17.589Z,40.70
2018-01-14T19:55:57.033Z,40.79
2018-01-14T19:58:24.785Z,40.57
2018-01-14T20:00:52.305Z,40.85
2018-01-14T20:03:19.864Z,41.06
2018-01-14T20:05:47.451Z,41.09
2018-01-14T20:08:15.032Z,40.92
2018-01-14T20:10:42.604Z,40.82
2018-01-14T20:13:10.105Z,40.84
2018-01-14T20:15:37.721Z,40.75
2018-01-14T20:18:05.309Z,40.75
2018-01-14T20:20:32.883Z,40.61
2018-01-14T20:23:00.418Z,40.51
2018-01-14T20:25:27.970Z,40.38
2018-01-14T20:27:55.524Z,40.21
2018-01-14T20:30:23.128Z,40.07
2018-01-14T20:32:50.700Z,40.02
2018-01-14T20:35:18.316Z,40.03
2018-01-14T20:38:03.416Z,40.02
2018-01-14T20:40:31.071Z,39.83
2018-01-14T20:42:58.648Z,39.71
2018-01-14T20:45:26.203Z,39.76
2018-01-14T20:47:53.755Z,39.96
2018-01-14T20:50:21.316Z,39.82
2018-01-14T20:52:48.902Z,39.63
2018-01-14T20:55:16.387Z,39.59
2018-01-14T20:57:43.948Z,39.25
2018-01-14T21:00:11.510Z,39.43
2018-01-14T21:02:39.066Z,39.38
2018-01-14T21:05:06.546Z,39.29
2018-01-14T21:07:34.094Z,39.22
2018-01-14T21:10:01.614Z,39.01
2018-01-14T21:12:29.169Z,38.83
2018-01-14T21:14:56.725Z,38.75
2018-01-14T21:17:24.279Z,38.63
2018-01-14T21:19:51.762Z,38.40
2018-01-14T21:22:19.522Z,38.04
2018-01-14T21:24:47.006Z,37.73
2018-01-14T21:27:15.234Z,37.68
2018-01-14T21:29:42.791Z,37.80
2018-01-14T21:32:10.960Z,37.63
2018-01-14T21:37:27.842Z,37.63
2018-01-14T21:39:55.467Z,37.69
2018-01-14T21:42:30.665Z,37.65
2018-01-14T21:45:03.579Z,37.65
2018-01-14T21:47:31.117Z,37.52
2018-01-14T21:49:58.698Z,37.44
2018-01-14T21:52:26.198Z,37.52
2018-01-14T21:54:54.413Z,37.51
2018-01-14T21:57:21.986Z,37.40
2018-01-14T21:59:49.502Z,37.34
2018-01-14T22:02:17.091Z,37.28
2018-01-14T22:04:44.652Z,37.28
2018-01-14T22:07:12.696Z,37.24
2018-01-14T22:09:40.288Z,37.20
2018-01-14T22:12:07.853Z,37.26
2018-01-14T22:14:35.930Z,37.21
2018-01-14T22:17:03.501Z,37.15
2018-01-14T22:19:31.069Z,37.02
2018-01-14T22:21:59.802Z,36.94
2018-01-14T22:24:27.380Z,36.91
2018-01-14T22:26:54.941Z,36.89
2018-01-14T22:29:24.628Z,36.88
2018-01-14T22:31:53.601Z,36.83
2018-01-14T22:34:21.130Z,36.80
2018-01-14T22:36:48.683Z,36.72
2018-01-14T22:39:16.900Z,36.62
2018-01-14T22:41:44.974Z,36.40
2018-01-14T22:44:13.358Z,36.47
2018-01-14T22:46:40.954Z,36.57
2018-01-14T22:49:09.158Z,36.46
2018-01-14T22:51:39.017Z,36.38
2018-01-14T22:54:06.533Z,36.66
2018-01-14T22:56:34.115Z,36.42
2018-01-14T22:59:02.099Z,36.46
2018-01-14T23:01:29.799Z,36.57
2018-01-14T23:03:57.309Z,36.56
2018-01-14T23:06:24.868Z,36.49
2018-01-14T23:08:52.424Z,36.47
2018-01-14T23:11:19.928Z,36.45
2018-01-14T23:13:48.114Z,36.40
2018-01-14T23:16:15.628Z,36.37
2018-01-14T23:18:43.119Z,36.17
2018-01-14T23:21:10.663Z,36.08
2018-01-14T23:23:39.189Z,36.06
2018-01-14T23:29:03.522Z,35.97
2018-01-14T23:31:31.053Z,35.90
2018-01-14T23:33:58.604Z,35.94
2018-01-14T23:36:26.207Z,35.95
2018-01-14T23:38:54.278Z,35.92
2018-01-14T23:41:21.884Z,35.96
2018-01-14T23:43:53.166Z,35.94
2018-01-14T23:46:20.726Z,36.01
2018-01-14T23:48:48.289Z,36.01
2018-01-14T23:51:15.883Z,36.10
2018-01-14T23:53:43.452Z,36.08
2018-01-14T23:56:12.023Z,36.13
2018-01-14T23:58:40.279Z,36.12
